Pagrindinis puslapis
METAR-TAF:

METAR-TAF

Oro uostai :

Kokosų, Australija

platuma: 12-11S, ilguma: 096-49E, Aukštis: 3 m

Dabartinis oras

Ataskaita buvo paskelbta 29 minutes, ne 19:00 UTC
Vėjas 8 kt iš Rytų
Temperatūra 27°C
Drėgmė 89%
Slėgis 1008 hPa
Matomumas 10 km arba daugiau
Išsisklaidę debesys ne aukštis 1600 ft
Išsisklaidę debesys ne aukštis 2400 ft
Apsiniaukę ne aukštis 5100 ft

METAR: YPCC 251900Z AUTO 10008KT 9999 // SCT016 SCT024 OVC051 27/25 Q1008

Laikas: 01:59 (19:29 UTC)

Prognozė

Ataskaita buvo paskelbta 2 valandos ir 10 minutes, ne 17:19 UTC
Prognozė galioja nuo 25 metu 17 UTC su 26 metu 18 UTC
Vėjas 14 kt iš Rytų
Matomumas 10 km arba daugiau
Išsisklaidę debesys ne aukštis 1500 ft
Su prošvaistėmis ne aukštis 3000 ft
lietus
Laikinai
nuo 25 metu 18 UTC su 25 metu 23 UTC
Matomumas 10 km arba daugiau
Su prošvaistėmis ne aukštis 1000 ft

TAF: YPCC 251719Z 2517/2618 09014KT 9999 -SHRA SCT015 BKN030 TEMPO 2518/2523 9999 BKN010

Orai ataskaitas ir orų prognozės (METAR, TAF).

turimą stotys yra geltonos ir raudonos taškus žemėlapyje.

Perkelti pele per norėdami pamatyti stoties vardą.

Tada spustelėkite, norėdami matyti oro stebėjimo ir prognozės.

Norėdami pakeisti žemėlapį: spustelėkite ant žalios mygtukų su juodo kryžiaus žemyn,; žalią mygtuką su brūkšneliu, jei norite nutolinti; arba žalių rodyklių gretimoms žemėlapius.


METAR-TAF: